createdAt,value
2023-01-11T00:04:42.081Z,97268.03
2023-01-11T00:09:44.741Z,97256.88
2023-01-11T00:14:46.761Z,97261.22
2023-01-11T00:19:50.070Z,97269.75
2023-01-11T00:24:52.056Z,97269.66
2023-01-11T00:29:54.073Z,97283.28
2023-01-11T00:34:57.656Z,97267.50
2023-01-11T00:39:59.659Z,97277.00
2023-01-11T00:45:20.229Z,97282.50
2023-01-11T00:50:23.583Z,97273.91
2023-01-11T00:55:26.433Z,97277.53
2023-01-11T01:00:29.264Z,97291.03
2023-01-11T01:05:33.403Z,97292.34
2023-01-11T01:10:35.377Z,97296.25
2023-01-11T01:15:37.404Z,97291.44
2023-01-11T01:20:40.801Z,97291.13
2023-01-11T01:25:42.757Z,97298.47
2023-01-11T01:30:50.004Z,97288.78
2023-01-11T01:35:53.339Z,97296.38
2023-01-11T01:40:56.855Z,97288.91
2023-01-11T01:45:58.792Z,97288.97
2023-01-11T01:51:04.438Z,97275.53
2023-01-11T01:56:10.270Z,97273.50
2023-01-11T02:01:31.889Z,97265.22
2023-01-11T02:06:35.587Z,97268.88
2023-01-11T02:11:43.271Z,97265.50
2023-01-11T02:16:45.233Z,97264.78
2023-01-11T02:22:03.943Z,97258.91
2023-01-11T02:27:33.367Z,97263.66
2023-01-11T02:32:46.878Z,97258.31
2023-01-11T02:38:01.547Z,97262.75
2023-01-11T02:43:32.248Z,97265.09
2023-01-11T02:48:46.268Z,97260.63
2023-01-11T02:53:53.597Z,97253.94
2023-01-11T02:58:57.868Z,97257.66
2023-01-11T03:04:01.171Z,97250.63
2023-01-11T03:09:26.089Z,97261.59
2023-01-11T03:14:36.801Z,97262.00
2023-01-11T03:19:43.993Z,97261.16
2023-01-11T03:24:49.876Z,97267.03
2023-01-11T03:29:58.559Z,97259.06
2023-01-11T03:35:13.650Z,97257.66
2023-01-11T03:40:21.588Z,97244.78
2023-01-11T03:45:25.413Z,97246.94
2023-01-11T03:50:29.672Z,97241.34
2023-01-11T03:55:37.585Z,97234.34
2023-01-11T04:00:40.574Z,97244.44
2023-01-11T04:05:47.600Z,97237.75
2023-01-11T04:10:49.600Z,97230.22
2023-01-11T04:15:52.721Z,97229.63
2023-01-11T04:20:56.047Z,97231.59
2023-01-11T04:25:57.993Z,97232.63
2023-01-11T04:30:59.977Z,97223.22
2023-01-11T04:36:05.797Z,97224.44
2023-01-11T04:41:26.373Z,97236.47
2023-01-11T04:46:28.307Z,97228.03
2023-01-11T04:51:31.636Z,97218.66
2023-01-11T04:56:33.643Z,97207.81
2023-01-11T05:01:35.648Z,97208.13
2023-01-11T05:06:39.100Z,97204.09
2023-01-11T05:11:41.318Z,97203.53
2023-01-11T05:16:43.900Z,97201.25
2023-01-11T05:21:47.240Z,97210.28
2023-01-11T05:26:50.199Z,97202.94
2023-01-11T05:31:52.296Z,97200.47
2023-01-11T05:36:55.631Z,97200.25
2023-01-11T05:41:57.578Z,97186.81
2023-01-11T05:46:59.683Z,97173.69
2023-01-11T05:52:02.976Z,97177.81
2023-01-11T05:57:10.470Z,97178.75
2023-01-11T06:02:12.642Z,97180.50
2023-01-11T06:07:16.240Z,97171.50
2023-01-11T06:12:18.244Z,97167.63
2023-01-11T06:17:20.192Z,97168.84
2023-01-11T06:22:23.455Z,97169.06
2023-01-11T06:27:25.462Z,97170.88
2023-01-11T06:32:29.242Z,97159.75
2023-01-11T06:37:32.911Z,97153.56
2023-01-11T06:42:34.921Z,97159.63
2023-01-11T06:47:36.896Z,97158.91
2023-01-11T06:52:40.174Z,97165.84
2023-01-11T06:57:42.504Z,97164.41
2023-01-11T07:02:44.879Z,97162.16
2023-01-11T07:07:48.251Z,97161.88
2023-01-11T07:12:50.303Z,97155.13
2023-01-11T07:17:54.282Z,97150.53
2023-01-11T07:23:01.187Z,97153.41
2023-01-11T07:28:05.593Z,97143.56
2023-01-11T07:33:07.739Z,97138.81
2023-01-11T07:38:11.729Z,97140.38
2023-01-11T07:43:14.980Z,97140.84
2023-01-11T07:48:21.222Z,97135.75
2023-01-11T07:53:26.235Z,97126.22
2023-01-11T07:58:28.195Z,97119.31
2023-01-11T08:03:30.398Z,97119.13
2023-01-11T08:08:33.815Z,97119.31
2023-01-11T08:13:54.380Z,97119.75
2023-01-11T08:18:56.411Z,97113.91
2023-01-11T08:24:00.048Z,97109.09
2023-01-11T08:29:02.007Z,97109.63
2023-01-11T08:34:04.006Z,97110.50
2023-01-11T08:39:07.456Z,97108.41
2023-01-11T08:44:11.695Z,97112.06
2023-01-11T08:49:13.844Z,97121.44
2023-01-11T08:54:17.613Z,97120.69
2023-01-11T08:59:20.071Z,97126.41
2023-01-11T09:04:25.820Z,97123.75
2023-01-11T09:09:30.305Z,97125.44
2023-01-11T09:14:32.344Z,97124.50
2023-01-11T09:19:34.412Z,97112.59
2023-01-11T09:24:37.732Z,97103.22
2023-01-11T09:29:39.783Z,97113.25
2023-01-11T09:34:42.927Z,97107.44
2023-01-11T09:39:46.792Z,97117.72
2023-01-11T09:44:50.855Z,97122.56
2023-01-11T09:49:57.187Z,97117.88
2023-01-11T09:55:01.367Z,97104.34
2023-01-11T10:00:13.171Z,97082.34
2023-01-11T10:05:36.892Z,97084.81
2023-01-11T10:18:29.557Z,97087.69
2023-01-11T10:21:49.436Z,97065.16
2023-01-11T10:26:57.133Z,97063.28
2023-01-11T10:32:13.434Z,97066.00
2023-01-11T10:37:20.751Z,97063.97
2023-01-11T10:42:28.635Z,97053.19
2023-01-11T10:47:37.048Z,97047.22
2023-01-11T10:52:47.864Z,97058.66
2023-01-11T10:58:04.957Z,97035.78
2023-01-11T11:03:22.030Z,97036.59
2023-01-11T11:08:30.594Z,97032.13
2023-01-11T11:13:47.354Z,97023.44
2023-01-11T11:18:50.763Z,97017.25
2023-01-11T11:23:56.985Z,97006.69
2023-01-11T11:29:02.624Z,97005.63
2023-01-11T11:34:06.916Z,97011.69
2023-01-11T11:39:20.403Z,97003.19
2023-01-11T11:44:25.085Z,96988.56
2023-01-11T11:49:28.315Z,96988.59
2023-01-11T11:54:32.901Z,96993.88
2023-01-11T11:59:36.323Z,96981.09
2023-01-11T12:04:47.059Z,96980.31
2023-01-11T12:09:55.398Z,96973.56
2023-01-11T12:15:21.734Z,96974.22
2023-01-11T12:20:31.321Z,96969.81
2023-01-11T12:25:40.393Z,96952.69
2023-01-11T12:30:49.931Z,96940.56
2023-01-11T12:36:03.088Z,96934.19
2023-01-11T12:41:44.492Z,96927.94
2023-01-11T12:46:59.414Z,96906.56
2023-01-11T12:52:20.941Z,96907.03
2023-01-11T12:57:29.974Z,96908.00
2023-01-11T13:02:50.668Z,96902.84
2023-01-11T13:08:05.275Z,96899.22
2023-01-11T13:13:12.984Z,96891.00
2023-01-11T13:18:28.967Z,96878.97
2023-01-11T13:23:39.220Z,96883.44
2023-01-11T13:28:44.498Z,96881.44
2023-01-11T13:33:53.758Z,96883.72
2023-01-11T13:39:01.345Z,96879.81
2023-01-11T13:44:11.549Z,96867.69
2023-01-11T13:49:37.145Z,96869.56
2023-01-11T13:54:45.629Z,96871.34
2023-01-11T13:59:52.753Z,96878.38
2023-01-11T14:05:01.116Z,96871.25
2023-01-11T14:10:24.341Z,96877.34
2023-01-11T14:15:32.265Z,96870.16
2023-01-11T14:20:43.791Z,96845.59
2023-01-11T14:26:07.613Z,96850.03
2023-01-11T14:31:26.362Z,96837.44
2023-01-11T14:36:56.781Z,96841.22
2023-01-11T14:42:22.008Z,96834.75
2023-01-11T14:47:35.591Z,96818.31
2023-01-11T14:52:40.895Z,96817.47
2023-01-11T14:57:44.430Z,96805.84
2023-01-11T15:02:47.225Z,96799.09
2023-01-11T15:07:50.701Z,96784.50
2023-01-11T15:12:56.148Z,96793.81
2023-01-11T15:18:17.800Z,96798.19
2023-01-11T15:23:21.529Z,96802.53
2023-01-11T15:28:35.603Z,96793.78
2023-01-11T15:33:48.417Z,96787.53
2023-01-11T15:38:59.841Z,96780.97
2023-01-11T15:44:25.147Z,96766.41
2023-01-11T15:49:58.307Z,96752.41
2023-01-11T15:55:27.548Z,96752.63
2023-01-11T16:01:07.785Z,96750.75
2023-01-11T16:06:17.688Z,96757.88
2023-01-11T16:11:31.829Z,96766.00
2023-01-11T16:16:40.298Z,96767.44
2023-01-11T16:21:46.826Z,96767.66
2023-01-11T16:26:55.581Z,96766.13
2023-01-11T16:32:00.414Z,96749.13
2023-01-11T16:37:20.456Z,96748.72
2023-01-11T16:42:26.047Z,96754.06
2023-01-11T16:47:28.108Z,96758.50
2023-01-11T16:52:38.805Z,96757.66
2023-01-11T16:57:46.312Z,96755.94
2023-01-11T17:02:50.143Z,96757.69
2023-01-11T17:07:52.212Z,96762.28
2023-01-11T17:13:34.714Z,96760.00
2023-01-11T17:18:39.741Z,96773.69
2023-01-11T17:23:43.520Z,96771.03
2023-01-11T17:28:48.351Z,96783.09
2023-01-11T17:34:00.688Z,96770.69
2023-01-11T17:39:05.475Z,96753.94
2023-01-11T17:44:34.888Z,96748.13
2023-01-11T17:49:38.300Z,96742.88
2023-01-11T17:54:40.353Z,96731.34
2023-01-11T17:59:43.771Z,96732.66
2023-01-11T18:04:56.568Z,96723.03
2023-01-11T18:10:01.555Z,96725.84
2023-01-11T18:15:08.029Z,96713.44
2023-01-11T18:20:36.638Z,96723.22
2023-01-11T18:25:38.798Z,96722.88
2023-01-11T18:30:45.767Z,96723.50
2023-01-11T18:35:49.765Z,96726.31
2023-01-11T18:40:53.364Z,96721.16
2023-01-11T18:45:57.008Z,96725.44
2023-01-11T18:50:59.832Z,96729.69
2023-01-11T18:56:01.833Z,96737.47
2023-01-11T19:01:06.760Z,96740.00
2023-01-11T19:06:11.978Z,96750.97
2023-01-11T19:11:15.416Z,96756.16
2023-01-11T19:16:18.765Z,96757.47
2023-01-11T19:21:21.818Z,96773.69
2023-01-11T19:26:23.910Z,96757.09
2023-01-11T19:31:27.235Z,96762.31
2023-01-11T19:36:32.088Z,96772.34
2023-01-11T19:41:53.979Z,96762.91
2023-01-11T19:47:10.398Z,96761.94
2023-01-11T19:52:18.996Z,96769.28
2023-01-11T19:57:21.960Z,96760.81
2023-01-11T20:02:26.180Z,96753.22
2023-01-11T20:07:28.265Z,96744.97
2023-01-11T20:12:30.236Z,96743.63
2023-01-11T20:17:35.481Z,96728.91
2023-01-11T20:22:37.579Z,96743.53
2023-01-11T20:27:39.823Z,96736.41
2023-01-11T20:32:43.151Z,96727.56
2023-01-11T20:37:45.054Z,96731.84
2023-01-11T20:42:47.043Z,96713.63
2023-01-11T20:47:50.397Z,96713.53
2023-01-11T20:52:52.222Z,96716.16
2023-01-11T20:57:54.411Z,96721.06
2023-01-11T21:02:57.923Z,96742.44
2023-01-11T21:08:00.552Z,96754.28
2023-01-11T21:13:03.793Z,96762.53
2023-01-11T21:18:07.268Z,96778.41
2023-01-11T21:23:09.276Z,96802.00
2023-01-11T21:28:11.308Z,96818.78
2023-01-11T21:33:15.807Z,96819.22
2023-01-11T21:38:17.795Z,96812.63
2023-01-11T21:43:19.773Z,96812.34
2023-01-11T21:48:23.328Z,96815.06
2023-01-11T21:53:29.463Z,96822.63
2023-01-11T21:58:31.971Z,96833.50
2023-01-11T22:03:35.458Z,96821.09
2023-01-11T22:08:38.515Z,96827.66
2023-01-11T22:13:41.166Z,96827.47
2023-01-11T22:18:45.685Z,96845.59
2023-01-11T22:23:48.290Z,96844.41
2023-01-11T22:29:11.790Z,96853.19
2023-01-11T22:34:15.940Z,96852.28
2023-01-11T22:39:19.567Z,96852.09
2023-01-11T22:44:21.729Z,96847.97
2023-01-11T22:49:25.177Z,96866.88
2023-01-11T22:54:27.203Z,96884.41
2023-01-11T22:59:29.235Z,96885.28
2023-01-11T23:04:33.272Z,96891.53
2023-01-11T23:09:35.349Z,96883.44
2023-01-11T23:14:37.409Z,96887.06
2023-01-11T23:19:41.152Z,96897.69
2023-01-11T23:24:43.138Z,96894.09
2023-01-11T23:29:45.086Z,96909.53
2023-01-11T23:34:49.063Z,96900.66
2023-01-11T23:39:51.051Z,96885.66
2023-01-11T23:44:53.214Z,96893.75
2023-01-11T23:49:58.106Z,96901.44
2023-01-11T23:55:00.061Z,96909.97
